全部
Ivanhoe Airport (Ivanhoe, New South Wales) YIVO 天气
|
Ivanhoe, New South Wales (YIVO)
晴天
微风 |
|
7 °C |
YIVO终端机场天气预报
| Here is the undecoded forecast: 2026/05/05 18:09 YIVO 051809Z 0520/0608 20006KT CAVOK FM060000 25008KT 9999 FEW040 PROB30 0520/0521 0500 FG NSC RMK T 08 14 18 20 Q 1022 1023 1022 1020 |
YIVO近期METAR历史数据
| Date | Time (AEST) | Flight Rules | Wind Dir. | Speed | Type | Height AGL (ft) | Visibility | Temp (°C) | Temp (°F) | Dew Point (°C) | Dew Point (°F) | Rel. Humid. | Pressure | Density Altitude | Remarks |
|---|---|---|---|---|---|---|---|---|---|---|---|---|---|---|---|
| 06-五月 | 06:00 | n/a | 210° | 5 kt | Missing | 7° | 44° | 7° | 44° | 100% | 1022 mb | -890 ft | |||
| 06-五月 | 05:00 | n/a | 210° | 5 kt | Missing | 8° | 46° | 7° | 44° | 93% | 1022 mb | -770 ft | |||
| 06-五月 | 04:00 | n/a | 190° | 5 kt | Missing | 8° | 46° | 8° | 46° | 100% | 1022 mb | -770 ft | |||
| 06-五月 | 03:00 | n/a | 190° | 5 kt | Missing | 8° | 46° | 8° | 46° | 100% | 1022 mb | -770 ft | |||
| 06-五月 | 02:00 | n/a | 180° | 5 kt | Missing | 9° | 48° | 9° | 48° | 100% | 1022 mb | -650 ft | |||
| 06-五月 | 01:00 | n/a | 190° | 5 kt | Missing | 10° | 50° | 9° | 48° | 93% | 1022 mb | -530 ft | |||
| 06-五月 | 00:00 | n/a | 190° | 5 kt | Missing | 11° | 51° | 9° | 48° | 87% | 1022 mb | -410 ft | |||
| 05-五月 | 23:00 | n/a | 200° | 5 kt | Missing | 11° | 51° | 8° | 46° | 82% | 1023 mb | -439 ft | |||
| 05-五月 | 22:00 | n/a | 180° | 5 kt | Missing | 12° | 53° | 8° | 46° | 76% | 1023 mb | -319 ft | |||
| 05-五月 | 21:00 | n/a | 180° | 5 kt | Missing | 13° | 55° | 8° | 46° | 72% | 1023 mb | -199 ft | |||
| 05-五月 | 20:00 | n/a | 170° | 6 kt | Missing | 14° | 57° | 8° | 46° | 67% | 1023 mb | -79 ft | |||
| 05-五月 | 19:00 | n/a | 180° | 4 kt | Missing | 14° | 57° | 8° | 46° | 67% | 1022 mb | -50 ft | |||
| 05-五月 | 18:00 | n/a | 200° | 5 kt | Missing | 16° | 60° | 8° | 46° | 59% | 1022 mb | 190 ft | |||
| 05-五月 | 17:00 | n/a | 210° | 6 kt | Missing | 18° | 64° | 8° | 46° | 52% | 1021 mb | 460 ft | |||
| 05-五月 | 16:00 | n/a | 200° | 6 kt | Missing | 19° | 66° | 8° | 46° | 49% | 1021 mb | 580 ft | |||
| 05-五月 | 15:00 | n/a | 180° | 7 kt | Missing | 19° | 66° | 9° | 48° | 52% | 1021 mb | 580 ft | |||
| 05-五月 | 14:00 | n/a | 190° | 6 kt | Missing | 19° | 66° | 9° | 48° | 52% | 1020 mb | 609 ft | |||
| 05-五月 | 13:00 | n/a | 230° | 6 kt | Missing | 18° | 64° | 9° | 48° | 56% | 1021 mb | 460 ft | |||
| 05-五月 | 12:00 | n/a | 200° | 7 kt | Missing | 19° | 66° | 10° | 50° | 56% | 1022 mb | 550 ft | |||
| 05-五月 | 11:00 | n/a | 170° | 5 kt | Missing | 17° | 62° | 10° | 50° | 63% | 1022 mb | 310 ft | |||
| 05-五月 | 10:00 | n/a | 170° | 5 kt | Missing | 16° | 60° | 11° | 51° | 72% | 1022 mb | 190 ft | |||
| 05-五月 | 09:00 | n/a | 160° | 6 kt | Missing | 13° | 55° | 10° | 50° | 82% | 1022 mb | -170 ft | |||
| 05-五月 | 08:00 | n/a | 180° | 3 kt | Missing | 11° | 51° | 10° | 50° | 94% | 1021 mb | -380 ft | |||
| 05-五月 | 07:00 | n/a | 210° | 6 kt | Missing | 9° | 48° | 8° | 46° | 93% | 1020 mb | -591 ft |
登录
| 您的浏览器不支持. 升级您的浏览器 |
